Time;durP1;ratioP1;P1;durP2;ratioP2;P2;SDS_P1;SDS_P2;PMS_P1;PMS_P2;Temp;Humidity;BMP_temperature;BMP_pressure;BME280_temperature;BME280_humidity;BME280_pressure;Samples;Min_cycle;Max_cycle;Signal;HPM_P1;HPM_P2
2021/05/14 00:00:00;;;;;;;2.87;1.43;;;4.00;99.90;;;;;;2056398;28;20222;-66
2021/05/14 00:01:03;;;;;;;2.23;1.20;;;3.90;99.90;;;;;;2063489;28;20865;-66
2021/05/14 00:02:05;;;;;;;2.83;1.60;;;3.90;99.90;;;;;;2063291;28;20191;-63
2021/05/14 00:03:06;;;;;;;1.95;1.38;;;4.00;99.90;;;;;;2063077;28;20566;-66
2021/05/14 00:04:06;;;;;;;1.57;1.20;;;3.90;99.90;;;;;;2063883;28;20194;-67
2021/05/14 00:05:08;;;;;;;4.60;1.93;;;3.90;99.90;;;;;;2064240;28;20197;-68
2021/05/14 00:06:09;;;;;;;2.05;1.30;;;3.90;99.90;;;;;;2057781;28;20191;-68
2021/05/14 00:07:10;;;;;;;2.20;1.50;;;3.80;99.90;;;;;;2056269;28;20223;-68
2021/05/14 00:08:10;;;;;;;2.07;1.47;;;3.80;99.90;;;;;;2047602;29;20273;-67
2021/05/14 00:09:12;;;;;;;1.40;1.30;;;3.80;99.90;;;;;;2049393;28;20278;-68
2021/05/14 00:10:13;;;;;;;3.85;1.50;;;3.80;99.90;;;;;;2061852;28;20180;-67
2021/05/14 00:11:13;;;;;;;1.60;1.23;;;3.80;99.90;;;;;;2055543;28;20193;-68
2021/05/14 00:12:14;;;;;;;1.83;1.20;;;3.80;99.90;;;;;;2053178;28;20194;-68
2021/05/14 00:13:15;;;;;;;1.63;1.50;;;3.80;99.90;;;;;;2056700;28;20179;-68
2021/05/14 00:14:16;;;;;;;1.40;1.30;;;3.70;99.90;;;;;;2056373;28;20281;-68
2021/05/14 00:15:18;;;;;;;2.67;1.20;;;3.70;99.90;;;;;;2056082;28;20275;-68
2021/05/14 00:16:20;;;;;;;2.70;1.27;;;3.70;99.90;;;;;;2055473;28;20259;-68
2021/05/14 00:17:20;;;;;;;2.20;1.30;;;3.70;99.90;;;;;;2058623;28;20178;-67
2021/05/14 00:18:21;;;;;;;1.97;1.40;;;3.70;99.90;;;;;;2064217;28;20222;-67
2021/05/14 00:19:22;;;;;;;2.17;1.30;;;3.60;99.90;;;;;;2060955;28;20212;-68
2021/05/14 00:20:22;;;;;;;1.57;1.23;;;3.60;99.90;;;;;;2055719;28;20593;-67
2021/05/14 00:21:26;;;;;;;2.27;1.37;;;3.60;99.90;;;;;;2058585;28;20189;-68
2021/05/14 00:22:27;;;;;;;1.42;1.30;;;3.60;99.90;;;;;;2063313;28;20175;-67
2021/05/14 00:23:27;;;;;;;1.53;1.40;;;3.60;99.90;;;;;;2059103;28;20654;-68
2021/05/14 00:24:28;;;;;;;2.73;1.60;;;3.50;99.90;;;;;;2056149;28;20189;-69
2021/05/14 00:25:29;;;;;;;1.87;1.40;;;3.50;99.90;;;;;;2060172;28;20285;-67
2021/05/14 00:26:30;;;;;;;1.33;1.20;;;3.50;99.90;;;;;;2064041;28;20224;-67
2021/05/14 00:27:31;;;;;;;1.88;1.25;;;3.50;99.90;;;;;;2058830;28;20215;-67
2021/05/14 00:28:31;;;;;;;2.80;1.30;;;3.50;99.90;;;;;;2047440;29;20184;-67
2021/05/14 00:29:32;;;;;;;1.50;1.40;;;3.40;99.90;;;;;;2060029;28;20174;-68
2021/05/14 00:30:33;;;;;;;1.43;1.20;;;3.40;99.90;;;;;;2064051;28;20298;-67
2021/05/14 00:31:34;;;;;;;1.40;1.30;;;3.40;99.90;;;;;;2059314;28;20178;-68
2021/05/14 00:32:36;;;;;;;3.40;1.60;;;3.40;99.90;;;;;;2055620;28;20739;-68
2021/05/14 00:33:36;;;;;;;3.15;1.70;;;3.30;99.90;;;;;;2060470;28;20168;-68
2021/05/14 00:34:37;;;;;;;2.37;1.40;;;3.30;99.90;;;;;;2063561;28;20200;-66
2021/05/14 00:35:38;;;;;;;3.10;1.50;;;3.30;99.90;;;;;;2058847;28;20195;-66
2021/05/14 00:36:39;;;;;;;3.63;1.53;;;3.30;99.90;;;;;;2055982;28;20171;-66
2021/05/14 00:37:39;;;;;;;2.03;1.67;;;3.30;99.90;;;;;;2061704;28;20784;-66
2021/05/14 00:38:40;;;;;;;4.07;2.00;;;3.30;99.90;;;;;;2063922;28;20167;-66
2021/05/14 00:39:43;;;;;;;2.30;1.77;;;3.20;99.90;;;;;;2058413;28;20688;-66
2021/05/14 00:40:44;;;;;;;2.65;1.60;;;3.20;99.90;;;;;;2055425;28;20250;-66
2021/05/14 00:41:45;;;;;;;3.42;2.00;;;3.30;99.90;;;;;;2053529;28;20175;-66
2021/05/14 00:42:46;;;;;;;2.57;1.70;;;3.20;99.90;;;;;;2063370;28;20175;-66
2021/05/14 00:43:46;;;;;;;2.67;1.90;;;3.20;99.90;;;;;;2057848;28;20273;-66
2021/05/14 00:44:47;;;;;;;2.50;1.80;;;3.20;99.90;;;;;;2055902;28;20214;-66
2021/05/14 00:45:48;;;;;;;3.10;2.30;;;3.20;99.90;;;;;;2062708;28;20296;-66
2021/05/14 00:46:48;;;;;;;4.93;2.10;;;3.20;99.90;;;;;;2064058;28;20182;-66
2021/05/14 00:47:49;;;;;;;4.47;2.53;;;3.20;99.90;;;;;;2057287;28;20167;-66
2021/05/14 00:48:50;;;;;;;2.20;1.70;;;3.20;99.90;;;;;;2055998;28;20163;-68
2021/05/14 00:49:50;;;;;;;3.00;1.80;;;3.20;99.90;;;;;;2063138;28;20205;-67
2021/05/14 00:50:51;;;;;;;2.80;1.40;;;3.20;99.90;;;;;;2063096;28;20651;-67
2021/05/14 00:51:55;;;;;;;3.47;1.93;;;3.20;99.90;;;;;;2056001;28;20175;-67
2021/05/14 00:52:55;;;;;;;3.42;1.90;;;3.20;99.90;;;;;;2055893;28;20225;-67
2021/05/14 00:53:56;;;;;;;2.50;1.90;;;3.20;99.90;;;;;;2064883;28;20190;-67
2021/05/14 00:54:57;;;;;;;3.33;2.23;;;3.20;99.90;;;;;;2065516;28;20202;-67
2021/05/14 00:55:58;;;;;;;3.03;2.10;;;3.20;99.90;;;;;;2056979;28;20171;-67
2021/05/14 00:56:59;;;;;;;4.00;2.33;;;3.20;99.90;;;;;;2056834;28;20443;-66
2021/05/14 00:57:59;;;;;;;5.20;2.28;;;3.20;99.90;;;;;;2065572;28;20429;-66
2021/05/14 00:59:00;;;;;;;4.70;1.90;;;3.20;99.90;;;;;;2064593;28;20182;-67
2021/05/14 01:00:01;;;;;;;3.10;2.13;;;3.20;99.90;;;;;;2057080;28;20239;-67
2021/05/14 01:01:02;;;;;;;2.70;2.38;;;3.20;99.90;;;;;;2057235;28;20179;-67
2021/05/14 01:02:05;;;;;;;4.90;2.33;;;3.20;99.90;;;;;;2064564;28;20190;-67
2021/05/14 01:03:06;;;;;;;4.13;2.28;;;3.20;99.90;;;;;;2064046;28;20261;-67
2021/05/14 01:04:06;;;;;;;1.80;1.60;;;3.20;99.90;;;;;;2056883;28;20183;-68
2021/05/14 01:05:08;;;;;;;3.43;1.93;;;3.20;99.90;;;;;;2058684;28;20183;-67
2021/05/14 01:06:09;;;;;;;3.50;2.20;;;3.20;99.90;;;;;;2065563;28;20273;-67
2021/05/14 01:07:11;;;;;;;2.80;2.20;;;3.20;99.90;;;;;;2064116;28;20225;-66
2021/05/14 01:08:12;;;;;;;3.00;2.00;;;3.30;99.90;;;;;;2056703;28;20218;-67
2021/05/14 01:09:14;;;;;;;3.87;2.40;;;3.20;99.90;;;;;;2058921;28;20178;-67
2021/05/14 01:10:15;;;;;;;3.38;2.30;;;3.20;99.90;;;;;;2064703;28;20186;-66
2021/05/14 01:11:15;;;;;;;3.87;2.13;;;3.20;99.90;;;;;;2062377;28;20741;-67
2021/05/14 01:12:16;;;;;;;2.63;2.20;;;3.20;99.90;;;;;;2057472;28;20270;-67
2021/05/14 01:13:25;;;;;;;2.40;2.07;;;3.20;99.90;;;;;;2059793;28;20611;-66
2021/05/14 01:14:25;;;;;;;2.60;2.40;;;3.20;99.90;;;;;;2056757;28;20198;-67
2021/05/14 01:15:26;;;;;;;3.83;1.80;;;3.10;99.90;;;;;;2053137;28;20202;-67
2021/05/14 01:16:27;;;;;;;3.90;1.90;;;3.10;99.90;;;;;;2057400;28;20174;-67
2021/05/14 01:17:30;;;;;;;2.28;1.90;;;3.10;99.90;;;;;;2060786;28;20324;-66
2021/05/14 01:18:31;;;;;;;2.63;1.55;;;3.10;99.90;;;;;;2064740;28;20183;-67
2021/05/14 01:19:32;;;;;;;3.97;2.00;;;3.10;99.90;;;;;;2060249;28;20171;-67
2021/05/14 01:20:32;;;;;;;4.03;2.13;;;3.10;99.90;;;;;;2056810;28;20266;-67
2021/05/14 01:21:33;;;;;;;2.53;1.50;;;3.10;99.90;;;;;;2061932;28;20712;-67
2021/05/14 01:22:35;;;;;;;3.88;2.00;;;3.10;99.90;;;;;;2065431;28;20249;-66
2021/05/14 01:23:35;;;;;;;2.03;1.60;;;3.10;99.90;;;;;;2059756;28;20556;-67
2021/05/14 01:24:36;;;;;;;2.87;1.80;;;3.10;99.90;;;;;;2056485;28;20183;-67
2021/05/14 01:25:37;;;;;;;2.60;1.80;;;3.00;99.90;;;;;;2062568;28;20214;-67
2021/05/14 01:26:37;;;;;;;2.47;1.90;;;3.00;99.90;;;;;;2065231;28;20648;-67
2021/05/14 01:27:38;;;;;;;2.90;1.60;;;3.00;99.90;;;;;;2060019;28;20171;-66
2021/05/14 01:28:40;;;;;;;1.63;1.53;;;3.00;99.90;;;;;;2057288;28;20205;-66
2021/05/14 01:29:42;;;;;;;2.05;1.40;;;3.00;99.90;;;;;;2063048;28;20183;-67
2021/05/14 01:30:44;;;;;;;2.47;1.30;;;3.00;99.90;;;;;;2060805;28;20249;-66
2021/05/14 01:31:44;;;;;;;2.05;1.85;;;3.00;99.90;;;;;;2056624;28;20645;-67
2021/05/14 01:32:45;;;;;;;1.73;1.50;;;2.90;99.90;;;;;;2056899;28;20246;-66
2021/05/14 01:33:46;;;;;;;3.07;1.40;;;3.00;99.90;;;;;;2057546;28;20175;-67
2021/05/14 01:34:47;;;;;;;2.92;1.58;;;2.90;99.90;;;;;;2063668;28;20178;-66
2021/05/14 01:35:48;;;;;;;2.07;1.20;;;2.90;99.90;;;;;;2065316;28;20270;-67
2021/05/14 01:36:48;;;;;;;3.83;1.80;;;2.90;99.90;;;;;;2059118;28;20171;-68
2021/05/14 01:37:49;;;;;;;2.03;1.80;;;2.90;99.90;;;;;;2057396;28;20689;-66
2021/05/14 01:38:50;;;;;;;3.93;1.70;;;2.90;99.90;;;;;;2057379;28;20182;-66
2021/05/14 01:39:50;;;;;;;1.53;1.43;;;2.90;99.90;;;;;;2056681;28;20172;-67
2021/05/14 01:40:52;;;;;;;1.87;1.40;;;2.80;99.90;;;;;;2056407;28;20421;-66
2021/05/14 01:41:53;;;;;;;3.47;1.58;;;2.90;99.90;;;;;;2057146;28;20587;-67
2021/05/14 01:42:54;;;;;;;2.28;1.40;;;2.80;99.90;;;;;;2063307;28;20689;-67
2021/05/14 01:43:54;;;;;;;2.23;1.43;;;2.90;99.90;;;;;;2058325;28;20194;-67
2021/05/14 01:44:55;;;;;;;2.40;1.40;;;2.90;99.90;;;;;;2056462;28;20198;-67
2021/05/14 01:45:56;;;;;;;2.17;1.53;;;2.90;99.90;;;;;;2057243;28;20569;-67
2021/05/14 01:46:57;;;;;;;2.67;1.40;;;2.90;99.90;;;;;;2064300;28;20206;-66
2021/05/14 01:47:58;;;;;;;1.90;1.57;;;2.80;99.90;;;;;;2064675;28;20732;-67
2021/05/14 01:48:58;;;;;;;2.10;1.43;;;2.80;99.90;;;;;;2055469;28;20188;-67
2021/05/14 01:49:59;;;;;;;2.43;1.60;;;2.80;99.90;;;;;;2056790;28;20266;-66
2021/05/14 01:51:09;;;;;;;2.53;1.83;;;2.80;99.90;;;;;;2056759;28;20202;-67
2021/05/14 01:52:10;;;;;;;1.88;1.30;;;2.70;99.90;;;;;;2057574;28;20670;-67
2021/05/14 01:53:11;;;;;;;3.67;1.73;;;2.70;99.90;;;;;;2064040;28;20183;-67
2021/05/14 01:54:12;;;;;;;4.20;2.00;;;2.70;99.90;;;;;;2057130;28;20175;-67
2021/05/14 01:55:13;;;;;;;2.57;1.77;;;2.70;99.90;;;;;;2057203;28;20232;-67
2021/05/14 01:56:14;;;;;;;2.08;1.58;;;2.60;99.90;;;;;;2058676;28;20175;-68
2021/05/14 01:57:15;;;;;;;3.50;2.03;;;2.60;99.90;;;;;;2065373;28;20825;-67
2021/05/14 01:58:15;;;;;;;4.83;2.23;;;2.60;99.90;;;;;;2063386;28;20181;-66
2021/05/14 01:59:16;;;;;;;2.30;1.73;;;2.60;99.90;;;;;;2057250;28;20651;-67
2021/05/14 02:00:18;;;;;;;3.53;2.20;;;2.60;99.90;;;;;;2058269;28;20187;-67
2021/05/14 02:01:19;;;;;;;3.35;1.80;;;2.60;99.90;;;;;;2064370;28;20472;-67
2021/05/14 02:02:21;;;;;;;3.53;2.03;;;2.60;99.90;;;;;;2061983;28;20187;-67
2021/05/14 02:03:22;;;;;;;4.50;2.20;;;2.60;99.90;;;;;;2056733;28;20178;-67
2021/05/14 02:04:23;;;;;;;5.07;2.17;;;2.60;99.90;;;;;;2060039;28;20241;-67
2021/05/14 02:05:24;;;;;;;2.73;1.73;;;2.60;99.90;;;;;;2066955;28;20213;-66
2021/05/14 02:06:24;;;;;;;2.22;1.90;;;2.60;99.90;;;;;;2058953;28;20199;-66
2021/05/14 02:07:25;;;;;;;3.20;1.97;;;2.60;99.90;;;;;;2058824;28;20218;-66
2021/05/14 02:08:26;;;;;;;1.70;1.60;;;2.60;99.90;;;;;;2058621;28;20259;-67
2021/05/14 02:09:27;;;;;;;2.80;1.77;;;2.70;99.90;;;;;;2065313;28;20571;-67
2021/05/14 02:10:27;;;;;;;2.57;1.93;;;2.70;99.90;;;;;;2063905;28;20240;-67
2021/05/14 02:11:28;;;;;;;2.30;1.77;;;2.70;99.90;;;;;;2059473;28;20179;-66
2021/05/14 02:12:29;;;;;;;3.03;2.50;;;2.70;99.90;;;;;;2058033;28;20187;-67
2021/05/14 02:13:31;;;;;;;3.03;1.90;;;2.70;99.90;;;;;;2065189;28;20167;-67
2021/05/14 02:14:31;;;;;;;3.97;1.90;;;2.70;99.90;;;;;;2063057;28;20624;-67
2021/05/14 02:15:32;;;;;;;2.43;2.10;;;2.70;99.90;;;;;;2056352;28;20203;-66
2021/05/14 02:16:33;;;;;;;2.33;2.13;;;2.70;99.90;;;;;;2055498;28;20627;-68
2021/05/14 02:17:34;;;;;;;4.43;2.00;;;2.70;99.90;;;;;;2049232;28;20215;-67
2021/05/14 02:18:37;;;;;;;2.70;1.60;;;2.70;99.90;;;;;;2050594;28;20262;-67
2021/05/14 02:19:37;;;;;;;3.05;2.28;;;2.60;99.90;;;;;;2056473;28;20181;-66
2021/05/14 02:20:38;;;;;;;3.60;2.47;;;2.60;99.90;;;;;;2054011;28;20596;-66
2021/05/14 02:21:39;;;;;;;2.77;2.33;;;2.60;99.90;;;;;;2048783;28;20175;-68
2021/05/14 02:22:40;;;;;;;5.27;2.50;;;2.60;99.90;;;;;;2053730;28;20206;-66
2021/05/14 02:23:41;;;;;;;3.58;2.53;;;2.60;99.90;;;;;;2065119;28;20186;-67
2021/05/14 02:24:42;;;;;;;4.27;2.60;;;2.60;99.90;;;;;;2059559;28;20229;-66
2021/05/14 02:25:42;;;;;;;4.47;2.63;;;2.50;99.90;;;;;;2048310;28;20192;-66
2021/05/14 02:26:43;;;;;;;4.37;2.27;;;2.50;99.90;;;;;;2053677;28;20178;-68
2021/05/14 02:27:44;;;;;;;4.43;2.27;;;2.60;99.90;;;;;;2064891;28;20609;-68
2021/05/14 02:28:44;;;;;;;3.97;2.50;;;2.60;99.90;;;;;;2061809;28;20171;-68
2021/05/14 02:29:46;;;;;;;3.17;2.40;;;2.60;99.90;;;;;;2057027;28;20175;-68
2021/05/14 02:30:47;;;;;;;2.80;2.00;;;2.60;99.90;;;;;;2060095;28;20673;-68
2021/05/14 02:31:48;;;;;;;3.57;2.27;;;2.60;99.90;;;;;;2064891;28;20202;-68
2021/05/14 02:32:48;;;;;;;3.27;2.30;;;2.60;99.90;;;;;;2061059;28;20172;-68
2021/05/14 02:33:49;;;;;;;3.47;2.33;;;2.60;99.90;;;;;;2057010;28;20575;-68
2021/05/14 02:34:50;;;;;;;2.57;2.03;;;2.60;99.90;;;;;;2060496;28;20544;-67
2021/05/14 02:35:50;;;;;;;3.50;2.00;;;2.60;99.90;;;;;;2065005;28;20163;-67
2021/05/14 02:36:51;;;;;;;3.30;2.30;;;2.60;99.90;;;;;;2060759;28;20222;-68
2021/05/14 02:37:53;;;;;;;3.50;2.20;;;2.60;99.90;;;;;;2057007;28;20198;-68
2021/05/14 02:38:53;;;;;;;3.13;2.17;;;2.60;99.90;;;;;;2060204;28;20166;-68
2021/05/14 02:39:54;;;;;;;2.43;2.00;;;2.60;99.90;;;;;;2064318;28;20179;-67
2021/05/14 02:40:55;;;;;;;3.93;2.60;;;2.60;99.90;;;;;;2060363;28;20545;-68
2021/05/14 02:41:55;;;;;;;3.37;2.00;;;2.70;99.90;;;;;;2056420;28;20275;-68
2021/05/14 02:42:56;;;;;;;2.93;1.83;;;2.70;99.90;;;;;;2061125;28;20175;-67
2021/05/14 02:43:57;;;;;;;3.15;2.00;;;2.70;99.90;;;;;;2064672;28;20238;-68
2021/05/14 02:44:58;;;;;;;4.97;2.30;;;2.70;99.90;;;;;;2059617;28;20669;-67
2021/05/14 02:45:59;;;;;;;2.20;1.93;;;2.70;99.90;;;;;;2056435;28;20275;-68
2021/05/14 02:46:59;;;;;;;4.00;2.17;;;2.70;99.90;;;;;;2061559;28;20772;-68
2021/05/14 02:48:00;;;;;;;3.87;2.00;;;2.70;99.90;;;;;;2064490;28;20213;-67
2021/05/14 02:49:02;;;;;;;13.10;2.63;;;2.70;99.90;;;;;;2059336;28;20206;-68
2021/05/14 02:50:05;;;;;;;2.47;1.70;;;2.60;99.90;;;;;;2055684;28;20865;-67
2021/05/14 02:51:06;;;;;;;3.00;1.90;;;2.60;99.90;;;;;;2061774;28;20774;-68
2021/05/14 02:52:08;;;;;;;3.78;2.25;;;2.60;99.90;;;;;;2064293;28;20186;-67
2021/05/14 02:53:09;;;;;;;2.60;1.70;;;2.60;99.90;;;;;;2049560;28;20192;-68
2021/05/14 02:54:10;;;;;;;2.30;1.60;;;2.70;99.90;;;;;;2047815;29;20179;-68
2021/05/14 02:55:12;;;;;;;3.60;1.70;;;2.70;99.90;;;;;;2063123;28;20218;-68
2021/05/14 02:56:13;;;;;;;3.35;1.88;;;2.70;99.90;;;;;;2064301;28;20166;-67
2021/05/14 02:57:14;;;;;;;2.17;1.53;;;2.70;99.90;;;;;;2057608;28;20670;-68
2021/05/14 02:58:15;;;;;;;4.03;2.00;;;2.70;99.90;;;;;;2056394;28;20234;-68
2021/05/14 02:59:15;;;;;;;2.30;1.60;;;2.70;99.90;;;;;;2062981;28;20190;-68
2021/05/14 03:00:17;;;;;;;2.40;1.67;;;2.80;99.90;;;;;;2063838;28;20217;-67
2021/05/14 03:01:18;;;;;;;3.03;1.83;;;2.80;99.90;;;;;;2055836;28;20206;-67
2021/05/14 03:02:18;;;;;;;1.70;1.60;;;2.80;99.90;;;;;;2055693;28;20805;-67
2021/05/14 03:03:19;;;;;;;2.10;1.63;;;2.80;99.90;;;;;;2064124;28;20179;-68
2021/05/14 03:04:20;;;;;;;1.77;1.47;;;2.80;99.90;;;;;;2064330;28;20178;-67
2021/05/14 03:05:21;;;;;;;2.83;1.70;;;2.80;99.90;;;;;;2056512;28;20698;-67
2021/05/14 03:06:22;;;;;;;2.43;1.50;;;2.80;99.90;;;;;;2056305;28;20171;-67
2021/05/14 03:07:23;;;;;;;2.03;1.50;;;2.70;99.90;;;;;;2048380;28;20306;-67
2021/05/14 03:08:24;;;;;;;2.70;1.90;;;2.70;99.90;;;;;;2055820;28;20713;-68
2021/05/14 03:09:25;;;;;;;2.60;1.63;;;2.70;99.90;;;;;;2063859;28;20540;-68
2021/05/14 03:10:25;;;;;;;3.40;1.50;;;2.70;99.90;;;;;;2063813;28;20240;-67
2021/05/14 03:11:26;;;;;;;1.80;1.70;;;2.60;99.90;;;;;;2056271;28;20205;-67
2021/05/14 03:12:27;;;;;;;2.20;1.63;;;2.60;99.90;;;;;;2056857;28;20623;-67
2021/05/14 03:13:28;;;;;;;3.23;1.40;;;2.60;99.90;;;;;;2064457;28;20182;-68
2021/05/14 03:14:29;;;;;;;3.27;1.60;;;2.60;99.90;;;;;;2063254;28;20186;-67
2021/05/14 03:15:29;;;;;;;4.10;1.80;;;2.60;99.90;;;;;;2056008;28;20190;-67
2021/05/14 03:16:30;;;;;;;2.23;1.70;;;2.60;99.90;;;;;;2056592;28;20674;-68
2021/05/14 03:17:31;;;;;;;2.10;1.67;;;2.60;99.90;;;;;;2063808;28;20607;-68
2021/05/14 03:18:32;;;;;;;2.50;1.73;;;2.60;99.90;;;;;;2062186;28;20190;-69
2021/05/14 03:19:33;;;;;;;2.73;1.87;;;2.60;99.90;;;;;;2055766;28;20627;-67
2021/05/14 03:20:33;;;;;;;3.20;1.90;;;2.60;99.90;;;;;;2057102;28;20190;-68
2021/05/14 03:21:34;;;;;;;2.37;1.77;;;2.60;99.90;;;;;;2064227;28;20630;-67
2021/05/14 03:22:35;;;;;;;2.37;1.90;;;2.60;99.90;;;;;;2062631;28;20181;-68
2021/05/14 03:23:37;;;;;;;1.95;1.80;;;2.60;99.90;;;;;;2056452;28;20186;-67
2021/05/14 03:24:37;;;;;;;3.42;1.95;;;2.60;99.90;;;;;;2058324;28;20185;-67
2021/05/14 03:25:38;;;;;;;2.97;2.50;;;2.60;99.90;;;;;;2063705;28;20182;-67
2021/05/14 03:26:39;;;;;;;3.38;2.47;;;2.60;99.90;;;;;;2053344;28;20948;-68
2021/05/14 03:27:40;;;;;;;3.40;2.20;;;2.70;99.90;;;;;;2055661;28;20194;-68
2021/05/14 03:28:41;;;;;;;4.03;2.33;;;2.60;99.90;;;;;;2058837;28;20290;-68
2021/05/14 03:29:42;;;;;;;5.60;2.43;;;2.70;99.90;;;;;;2064090;28;20178;-67
2021/05/14 03:30:43;;;;;;;4.50;2.03;;;2.60;99.90;;;;;;2061652;28;20267;-68
2021/05/14 03:31:44;;;;;;;3.10;2.00;;;2.60;99.90;;;;;;2055293;28;20222;-68
2021/05/14 03:32:45;;;;;;;4.70;1.80;;;2.60;99.90;;;;;;2058708;28;20175;-67
2021/05/14 03:33:46;;;;;;;3.75;1.92;;;2.60;99.90;;;;;;2063478;28;20417;-68
2021/05/14 03:34:47;;;;;;;2.33;1.60;;;2.70;99.90;;;;;;2060288;28;20187;-68
2021/05/14 03:35:49;;;;;;;3.13;1.80;;;2.60;99.90;;;;;;2055906;28;20675;-68
2021/05/14 03:36:50;;;;;;;2.65;1.70;;;2.60;99.90;;;;;;2059330;28;20167;-68
2021/05/14 03:37:51;;;;;;;2.53;1.90;;;2.60;99.90;;;;;;2063466;28;20662;-67
2021/05/14 03:38:52;;;;;;;3.43;2.20;;;2.60;99.90;;;;;;2060233;28;20194;-68
2021/05/14 03:39:55;;;;;;;2.05;1.70;;;2.60;99.90;;;;;;2056116;28;20167;-68
2021/05/14 03:40:56;;;;;;;2.13;1.60;;;2.60;99.90;;;;;;2059892;28;20783;-67
2021/05/14 03:42:13;;;;;;;2.07;1.73;;;2.60;99.90;;;;;;2063410;28;20185;-68
2021/05/14 03:43:15;;;;;;;1.88;1.70;;;2.60;99.90;;;;;;2057402;28;20270;-67
2021/05/14 03:44:16;;;;;;;2.63;1.90;;;2.50;99.90;;;;;;2056192;28;20175;-68
2021/05/14 03:45:17;;;;;;;2.03;1.83;;;2.50;99.90;;;;;;2063209;28;20198;-67
2021/05/14 03:46:18;;;;;;;3.63;2.10;;;2.50;99.90;;;;;;2063951;28;20413;-67
2021/05/14 03:47:22;;;;;;;2.50;1.97;;;2.50;99.90;;;;;;2056277;28;20294;-67
2021/05/14 03:48:23;;;;;;;3.40;2.45;;;2.50;99.90;;;;;;2055884;28;20187;-68
2021/05/14 03:49:24;;;;;;;2.17;1.80;;;2.50;99.90;;;;;;2063963;28;20182;-67
2021/05/14 03:50:28;;;;;;;2.20;1.67;;;2.40;99.90;;;;;;2063397;28;20185;-67
2021/05/14 03:51:29;;;;;;;1.90;1.80;;;2.50;99.90;;;;;;2055197;28;20742;-67
2021/05/14 03:52:32;;;;;;;2.97;2.05;;;2.50;99.90;;;;;;2056041;28;20660;-67
2021/05/14 03:53:33;;;;;;;2.38;1.70;;;2.50;99.90;;;;;;2063453;28;20182;-68
2021/05/14 03:54:34;;;;;;;2.83;1.60;;;2.50;99.90;;;;;;2062185;28;20186;-68
2021/05/14 03:55:34;;;;;;;2.53;1.80;;;2.40;99.90;;;;;;2055213;28;20847;-68
2021/05/14 03:56:35;;;;;;;2.40;1.70;;;2.40;99.90;;;;;;2056870;28;20171;-67
2021/05/14 03:57:36;;;;;;;1.73;1.60;;;2.40;99.90;;;;;;2064058;28;20767;-67
2021/05/14 03:58:37;;;;;;;2.00;1.40;;;2.40;99.90;;;;;;2061686;28;20175;-68
2021/05/14 03:59:38;;;;;;;1.55;1.45;;;2.30;99.90;;;;;;2056026;28;20183;-68
2021/05/14 04:00:40;;;;;;;3.42;1.70;;;2.40;99.90;;;;;;2058028;28;20186;-68
2021/05/14 04:01:40;;;;;;;2.33;1.73;;;2.40;99.90;;;;;;2063734;28;20178;-68
2021/05/14 04:02:41;;;;;;;3.70;1.87;;;2.40;99.90;;;;;;2060442;28;20182;-68
2021/05/14 04:03:42;;;;;;;2.23;2.03;;;2.30;99.90;;;;;;2055210;28;20253;-67
2021/05/14 04:04:43;;;;;;;2.20;2.00;;;2.30;99.90;;;;;;2058401;28;20184;-67
2021/05/14 04:05:44;;;;;;;1.50;1.40;;;2.30;99.90;;;;;;2063880;28;20206;-68
2021/05/14 04:06:45;;;;;;;2.03;1.80;;;2.30;99.90;;;;;;2060529;28;20176;-68
2021/05/14 04:07:47;;;;;;;2.20;1.63;;;2.30;99.90;;;;;;2055851;28;20167;-68
2021/05/14 04:08:47;;;;;;;1.80;1.35;;;2.30;99.90;;;;;;2059079;28;20260;-67
2021/05/14 04:10:11;;;;;;;2.27;1.60;;;2.30;99.90;;;;;;2063684;28;20220;-68
2021/05/14 04:14:58;;;;;;;2.92;2.38;;;2.30;99.90;;;;;;2057458;28;20186;-68
2021/05/14 04:15:59;;;;;;;1.90;1.70;;;2.30;99.90;;;;;;2063657;28;20638;-68
2021/05/14 04:17:03;;;;;;;2.60;2.30;;;2.30;99.90;;;;;;2058665;28;20255;-67
2021/05/14 04:18:04;;;;;;;2.80;2.40;;;2.40;99.90;;;;;;2055904;28;20178;-67
2021/05/14 04:19:05;;;;;;;2.92;2.17;;;2.40;99.90;;;;;;2061683;28;20204;-68
2021/05/14 04:20:07;;;;;;;3.00;2.43;;;2.40;99.90;;;;;;2063951;28;20291;-68
2021/05/14 04:21:07;;;;;;;3.55;2.90;;;2.40;99.90;;;;;;2056803;28;20182;-68
2021/05/14 04:22:08;;;;;;;3.93;3.00;;;2.40;99.90;;;;;;2055130;28;20202;-67
2021/05/14 04:23:09;;;;;;;3.83;2.90;;;2.50;99.90;;;;;;2061785;28;20258;-68
2021/05/14 04:24:09;;;;;;;3.30;3.00;;;2.50;99.90;;;;;;2063672;28;20602;-66
2021/05/14 04:25:11;;;;;;;6.27;5.60;;;2.50;99.90;;;;;;2056892;28;20205;-68
2021/05/14 04:26:11;;;;;;;4.15;3.75;;;2.60;99.90;;;;;;2055624;28;20203;-68
2021/05/14 04:27:14;;;;;;;3.37;2.83;;;2.60;99.90;;;;;;2061950;28;20264;-68
2021/05/14 04:28:15;;;;;;;4.25;3.05;;;2.70;99.90;;;;;;2063889;28;20175;-67
2021/05/14 04:29:16;;;;;;;2.13;1.93;;;2.70;99.90;;;;;;2057035;28;20282;-68
2021/05/14 04:30:17;;;;;;;2.47;1.80;;;2.80;99.90;;;;;;2056279;28;20608;-68
2021/05/14 04:31:18;;;;;;;4.35;1.70;;;2.80;99.90;;;;;;2063601;28;20567;-67
2021/05/14 04:32:19;;;;;;;2.23;1.27;;;2.90;99.90;;;;;;2064857;28;20273;-68
2021/05/14 04:33:19;;;;;;;2.20;1.40;;;2.90;99.90;;;;;;2057306;28;20191;-68
2021/05/14 04:34:21;;;;;;;2.93;2.03;;;3.00;99.90;;;;;;2056830;28;20179;-68
2021/05/14 04:35:21;;;;;;;1.55;1.42;;;3.00;99.90;;;;;;2064304;28;20202;-68
2021/05/14 04:36:22;;;;;;;2.10;1.50;;;3.00;99.90;;;;;;2064226;28;20186;-68
2021/05/14 04:37:23;;;;;;;1.93;1.40;;;3.00;99.90;;;;;;2056985;28;20179;-67
2021/05/14 04:38:23;;;;;;;3.30;1.70;;;3.00;99.90;;;;;;2056956;28;20637;-68
2021/05/14 04:39:24;;;;;;;1.70;1.60;;;3.10;99.90;;;;;;2065014;28;20534;-68
2021/05/14 04:40:25;;;;;;;1.73;1.50;;;3.20;99.90;;;;;;2064495;28;20256;-68
2021/05/14 04:41:26;;;;;;;1.75;1.63;;;3.20;99.90;;;;;;2056763;28;20278;-68
2021/05/14 04:42:26;;;;;;;1.43;1.33;;;3.30;99.90;;;;;;2057392;28;20191;-68
2021/05/14 04:43:27;;;;;;;1.70;1.60;;;3.30;99.90;;;;;;2065007;28;20190;-68
2021/05/14 04:44:28;;;;;;;2.00;1.43;;;3.30;99.90;;;;;;2063917;28;20697;-68
2021/05/14 04:45:30;;;;;;;2.20;1.60;;;3.30;99.90;;;;;;2037192;28;579796;-67
2021/05/14 04:46:30;;;;;;;1.73;1.63;;;3.40;99.90;;;;;;2058464;28;20195;-68
2021/05/14 04:47:32;;;;;;;3.00;1.40;;;3.40;99.90;;;;;;2065410;28;20959;-68
2021/05/14 04:48:33;;;;;;;2.20;1.50;;;3.40;99.90;;;;;;2063797;28;20179;-67
2021/05/14 04:49:34;;;;;;;2.07;1.77;;;3.50;99.90;;;;;;2057386;28;20186;-67
2021/05/14 04:50:35;;;;;;;1.67;1.57;;;3.50;99.90;;;;;;2058936;28;20191;-67
2021/05/14 04:51:36;;;;;;;2.38;1.25;;;3.50;99.90;;;;;;2065524;28;20777;-68
2021/05/14 04:52:37;;;;;;;2.37;1.70;;;3.60;99.90;;;;;;2064885;28;20179;-68
2021/05/14 04:53:39;;;;;;;2.60;1.50;;;3.60;99.90;;;;;;2058979;28;20543;-67
2021/05/14 04:54:40;;;;;;;3.47;2.20;;;3.70;99.90;;;;;;2061057;28;20183;-68
2021/05/14 04:55:41;;;;;;;2.20;1.87;;;3.80;99.90;;;;;;2067041;28;20222;-68
2021/05/14 04:56:42;;;;;;;2.50;1.80;;;3.80;99.90;;;;;;2063533;28;20701;-67
2021/05/14 04:57:42;;;;;;;3.33;1.87;;;3.80;99.90;;;;;;2058454;28;20258;-67
2021/05/14 04:58:43;;;;;;;2.50;2.30;;;3.90;99.90;;;;;;2058988;28;20688;-67
2021/05/14 04:59:44;;;;;;;3.55;2.00;;;3.90;99.90;;;;;;2058984;28;20192;-67
2021/05/14 05:00:45;;;;;;;4.43;2.40;;;4.00;99.90;;;;;;2061807;28;20189;-67
2021/05/14 05:01:45;;;;;;;3.97;2.60;;;4.10;99.90;;;;;;2066884;28;20250;-67
2021/05/14 05:02:46;;;;;;;6.47;2.57;;;4.10;99.90;;;;;;2063556;28;20197;-67
2021/05/14 05:03:52;;;;;;;2.80;2.00;;;4.20;99.90;;;;;;2058972;28;20268;-67
2021/05/14 05:04:56;;;;;;;2.70;2.13;;;4.20;99.90;;;;;;2058355;28;20191;-66
2021/05/14 05:05:57;;;;;;;2.60;1.88;;;4.20;99.90;;;;;;2054233;28;20180;-67
2021/05/14 05:06:57;;;;;;;3.70;1.87;;;4.30;99.90;;;;;;2065342;28;20184;-67
2021/05/14 05:07:58;;;;;;;2.73;1.80;;;4.30;99.90;;;;;;2069068;28;20168;-68
2021/05/14 05:08:59;;;;;;;4.10;2.00;;;4.30;99.90;;;;;;2068850;28;20175;-68
2021/05/14 05:10:00;;;;;;;1.92;1.70;;;4.40;99.90;;;;;;2067956;28;20177;-67
2021/05/14 05:11:01;;;;;;;2.13;1.93;;;4.40;99.90;;;;;;2059846;28;20182;-67
2021/05/14 05:12:02;;;;;;;2.03;1.83;;;4.40;99.90;;;;;;2057167;28;20288;-67
2021/05/14 05:13:03;;;;;;;2.05;1.85;;;4.50;99.90;;;;;;2061918;28;20179;-67
2021/05/14 05:14:03;;;;;;;3.07;1.77;;;4.50;99.90;;;;;;2064887;28;20256;-65
2021/05/14 05:15:06;;;;;;;2.37;1.90;;;4.60;99.90;;;;;;2059484;28;20175;-66
2021/05/14 05:16:07;;;;;;;1.80;1.70;;;4.60;99.90;;;;;;2057304;28;20180;-66
2021/05/14 05:17:07;;;;;;;1.98;1.77;;;4.70;99.90;;;;;;2063431;28;20215;-65
2021/05/14 05:18:08;;;;;;;2.93;2.00;;;4.70;99.90;;;;;;2065240;28;20239;-66
2021/05/14 05:19:09;;;;;;;2.60;2.40;;;4.70;99.90;;;;;;2059154;28;20736;-67
2021/05/14 05:20:10;;;;;;;3.80;2.30;;;4.80;99.90;;;;;;2057228;28;20217;-66
2021/05/14 05:21:11;;;;;;;2.60;1.98;;;4.90;99.90;;;;;;2063632;28;20723;-66
2021/05/14 05:22:12;;;;;;;3.47;1.60;;;4.90;99.90;;;;;;2065222;28;20191;-67
2021/05/14 05:23:12;;;;;;;2.90;2.50;;;5.00;99.90;;;;;;2058511;28;20796;-66
2021/05/14 05:24:13;;;;;;;3.40;3.10;;;5.10;99.90;;;;;;2057046;28;20185;-66
2021/05/14 05:25:14;;;;;;;3.37;2.43;;;5.10;99.90;;;;;;2064041;28;20217;-66
2021/05/14 05:26:15;;;;;;;3.50;2.10;;;5.20;99.90;;;;;;2065289;28;20250;-66